Flora Vista, NM (87415)

11:31 PM MDT on August 19, 2014 (GMT -0600)
Aztec, NM 87410 | Change Station
CLOSE
Current Station
Personal Weather Station
Location: Aztec, NM
Elevation: 5682 ft
Nearby Weather Stations

Elev 5682 ft 36.82 °N, 107.99 °W | Updated 9 minutes ago

Scattered Clouds
Scattered Clouds
65.5 °F
Feels Like 65.5 °F
N
0.0
Wind Variable Wind from WSW

Today
High -- | Low -- °F
--% Chance of Precip.
Yesterday
High -- | Low -- °F
Precip. -- in
6:32 AM 7:58 PM
Waning Crescent, 24% visible
Pressure 29.86 in
Visibility 10.0 miles
Clouds Scattered Clouds 5500 ft
Dew Point 52 °F
Humidity 62%
Rainfall 0.00 in
Snow Depth Not available.
UV 0 out of 12
Pollen 6.60 out of 12
Air Quality Not available.
Flu Activity Not available.
METAR KFMN 200453Z AUTO 12005KT 10SM SCT055 18/14 A3003 RMK AO2 SLP110 T01830144

More Conditions Fewer Conditions

Pressure 29.86 in
Visibility 10.0 miles
Clouds Scattered Clouds 5500 ft
Dew Point 52 °F
Humidity 62%
Rainfall 0.00 in
Snow Depth Not available.
UV 0 out of 12
Pollen 6.60 out of 12
Air Quality Not available.
Flu Activity Not available.
METAR KFMN 200453Z AUTO 12005KT 10SM SCT055 18/14 A3003 RMK AO2 SLP110 T01830144

More Conditions Fewer Conditions

Nowcast | as of 10:01 PM MDT on August 19, 2014

Showers will continue through late evening. Showers in northern Cibola and eastern McKinley counties will move northeast across Cabezon Peak Recreation Area and Torreon Navajo mission. Showers in eastern San Juan County and western Rio Arriba County will move across Highway 64 and western portions of the Jicarilla Apache reservation. Expect occasional lightning and rainfall up to a tenth of an inch in heavier showers. Elsewhere...expect light rainfall of less than a tenth of an inch in scattered showers through late evening.

×

10-Day Weather Forecast

Almanac

Astronomy

Aug. 19, 2014 Rise Set
Actual Time 6:32 AM MDT 7:58 PM MDT
Civil Twilight 6:05 AM MDT 8:25 PM MDT
Nautical Twilight 5:32 AM MDT 8:58 PM MDT
Astronomical Twilight 4:58 AM MDT 9:32 PM MDT
Moon 1:29 AM MDT (8/19) 3:54 PM MDT (8/19)
Length of Visible Light 14h 20m
Length of Day
13h 25m
Tomorrow will be 2m 7s shorter.
Waning Crescent, 24% of the Moon is Illuminated
Aug 20
Waning Crescent
Aug 25
New
Sep 2
First Quarter
Sep 8
Full
Sep 15
Last Quarter

Yesterday's Extremes

State Highs State Lows

Community

WunderPhotos

Upload Photos

1,745,592 photos uploaded!

Nearby

Snow Depth

Station Depth Elevation
Chamita 0 in 8400 ft
Senorita Divide #2 0 in 8600 ft
Bateman 0 in 9300 ft
Hopewell 0 in 10000 ft
Quemazon 1 in 9500 ft

Earthquake Activity

City Distance Mag. Time & Date
No recent earthquake activity has been reported nearby.
Minimum magnitude displayed is 2.5.

Coastal Water Temperatures

Place Temperature
No Stations Reporting

Nearby Weather Stations